sensor_id;sensor_type;location;lat;lon;timestamp;P1;durP1;ratioP1;P2;durP2;ratioP2
4634;SDS011;2330;48.158;11.816;2022-09-12T00:01:49;3.50;;;2.27;;
4634;SDS011;2330;48.158;11.816;2022-09-12T00:04:15;2.33;;;2.23;;
4634;SDS011;2330;48.158;11.816;2022-09-12T00:06:42;2.37;;;2.10;;
4634;SDS011;2330;48.158;11.816;2022-09-12T00:09:10;2.40;;;2.20;;
4634;SDS011;2330;48.158;11.816;2022-09-12T00:11:39;2.90;;;2.33;;
4634;SDS011;2330;48.158;11.816;2022-09-12T00:14:08;2.40;;;2.20;;
4634;SDS011;2330;48.158;11.816;2022-09-12T00:16:37;2.30;;;2.20;;
4634;SDS011;2330;48.158;11.816;2022-09-12T00:19:04;2.60;;;2.40;;
4634;SDS011;2330;48.158;11.816;2022-09-12T00:21:32;2.33;;;2.23;;
4634;SDS011;2330;48.158;11.816;2022-09-12T00:24:01;2.10;;;2.00;;
4634;SDS011;2330;48.158;11.816;2022-09-12T00:26:28;3.23;;;2.30;;
4634;SDS011;2330;48.158;11.816;2022-09-12T00:28:55;2.17;;;2.07;;
4634;SDS011;2330;48.158;11.816;2022-09-12T00:31:24;3.60;;;2.17;;
4634;SDS011;2330;48.158;11.816;2022-09-12T00:33:52;2.13;;;2.00;;
4634;SDS011;2330;48.158;11.816;2022-09-12T00:36:22;4.60;;;2.03;;
4634;SDS011;2330;48.158;11.816;2022-09-12T00:38:50;2.63;;;2.10;;
4634;SDS011;2330;48.158;11.816;2022-09-12T00:41:22;2.50;;;2.30;;
4634;SDS011;2330;48.158;11.816;2022-09-12T00:43:51;2.70;;;2.50;;
4634;SDS011;2330;48.158;11.816;2022-09-12T00:49:32;2.50;;;2.30;;
4634;SDS011;2330;48.158;11.816;2022-09-12T00:52:03;2.07;;;1.97;;
4634;SDS011;2330;48.158;11.816;2022-09-12T00:54:44;2.57;;;2.17;;
4634;SDS011;2330;48.158;11.816;2022-09-12T00:57:18;3.33;;;1.90;;
4634;SDS011;2330;48.158;11.816;2022-09-12T00:59:55;2.50;;;2.40;;
4634;SDS011;2330;48.158;11.816;2022-09-12T01:02:44;2.63;;;2.43;;
4634;SDS011;2330;48.158;11.816;2022-09-12T01:05:15;2.33;;;2.13;;
4634;SDS011;2330;48.158;11.816;2022-09-12T01:07:42;3.03;;;2.17;;
4634;SDS011;2330;48.158;11.816;2022-09-12T01:10:13;4.37;;;2.30;;
4634;SDS011;2330;48.158;11.816;2022-09-12T01:12:40;3.37;;;2.10;;
4634;SDS011;2330;48.158;11.816;2022-09-12T01:15:08;2.93;;;2.40;;
4634;SDS011;2330;48.158;11.816;2022-09-12T01:17:53;3.23;;;2.30;;
4634;SDS011;2330;48.158;11.816;2022-09-12T01:35:10;2.10;;;1.90;;
4634;SDS011;2330;48.158;11.816;2022-09-12T01:37:51;2.33;;;2.23;;
4634;SDS011;2330;48.158;11.816;2022-09-12T01:43:22;3.30;;;2.10;;
4634;SDS011;2330;48.158;11.816;2022-09-12T01:48:33;2.27;;;2.03;;
4634;SDS011;2330;48.158;11.816;2022-09-12T01:51:08;2.30;;;2.10;;
4634;SDS011;2330;48.158;11.816;2022-09-12T01:53:40;1.90;;;1.80;;
4634;SDS011;2330;48.158;11.816;2022-09-12T01:56:13;3.60;;;2.23;;
4634;SDS011;2330;48.158;11.816;2022-09-12T01:58:58;2.13;;;2.03;;
4634;SDS011;2330;48.158;11.816;2022-09-12T02:01:30;2.80;;;2.30;;
4634;SDS011;2330;48.158;11.816;2022-09-12T02:04:03;2.17;;;1.93;;
4634;SDS011;2330;48.158;11.816;2022-09-12T02:06:36;2.20;;;2.00;;
4634;SDS011;2330;48.158;11.816;2022-09-12T02:12:12;2.13;;;1.93;;
4634;SDS011;2330;48.158;11.816;2022-09-12T02:14:45;2.60;;;2.40;;
4634;SDS011;2330;48.158;11.816;2022-09-12T02:17:18;1.73;;;1.63;;
4634;SDS011;2330;48.158;11.816;2022-09-12T02:19:58;2.00;;;1.90;;
4634;SDS011;2330;48.158;11.816;2022-09-12T02:22:29;2.07;;;1.87;;
4634;SDS011;2330;48.158;11.816;2022-09-12T02:24:59;2.10;;;2.00;;
4634;SDS011;2330;48.158;11.816;2022-09-12T02:27:38;4.03;;;2.10;;
4634;SDS011;2330;48.158;11.816;2022-09-12T02:30:09;3.63;;;2.07;;
4634;SDS011;2330;48.158;11.816;2022-09-12T02:32:44;2.00;;;1.60;;
4634;SDS011;2330;48.158;11.816;2022-09-12T02:35:24;1.97;;;1.87;;
4634;SDS011;2330;48.158;11.816;2022-09-12T02:38:12;3.00;;;2.03;;
4634;SDS011;2330;48.158;11.816;2022-09-12T02:40:45;4.13;;;2.13;;
4634;SDS011;2330;48.158;11.816;2022-09-12T02:43:12;1.77;;;1.67;;
4634;SDS011;2330;48.158;11.816;2022-09-12T02:45:38;2.20;;;2.00;;
4634;SDS011;2330;48.158;11.816;2022-09-12T02:48:10;2.73;;;2.10;;
4634;SDS011;2330;48.158;11.816;2022-09-12T02:50:52;2.50;;;1.73;;
4634;SDS011;2330;48.158;11.816;2022-09-12T02:53:20;4.73;;;1.90;;
4634;SDS011;2330;48.158;11.816;2022-09-12T02:55:47;3.40;;;2.00;;
4634;SDS011;2330;48.158;11.816;2022-09-12T02:58:18;5.53;;;2.00;;
4634;SDS011;2330;48.158;11.816;2022-09-12T03:01:00;1.97;;;1.87;;
4634;SDS011;2330;48.158;11.816;2022-09-12T03:03:51;2.30;;;2.10;;
4634;SDS011;2330;48.158;11.816;2022-09-12T03:06:39;4.10;;;2.03;;
4634;SDS011;2330;48.158;11.816;2022-09-12T03:18:00;2.90;;;2.27;;
4634;SDS011;2330;48.158;11.816;2022-09-12T03:23:42;2.03;;;1.93;;
4634;SDS011;2330;48.158;11.816;2022-09-12T03:26:19;2.23;;;2.10;;
4634;SDS011;2330;48.158;11.816;2022-09-12T03:28:53;2.00;;;1.80;;
4634;SDS011;2330;48.158;11.816;2022-09-12T03:31:21;3.83;;;2.10;;
4634;SDS011;2330;48.158;11.816;2022-09-12T03:33:48;4.57;;;2.50;;
4634;SDS011;2330;48.158;11.816;2022-09-12T03:36:16;3.53;;;2.33;;
4634;SDS011;2330;48.158;11.816;2022-09-12T03:38:47;4.50;;;2.20;;
4634;SDS011;2330;48.158;11.816;2022-09-12T03:41:14;2.20;;;2.03;;
4634;SDS011;2330;48.158;11.816;2022-09-12T03:43:41;3.23;;;1.97;;
4634;SDS011;2330;48.158;11.816;2022-09-12T03:46:08;4.37;;;2.07;;
4634;SDS011;2330;48.158;11.816;2022-09-12T03:48:35;3.60;;;2.30;;
4634;SDS011;2330;48.158;11.816;2022-09-12T03:51:02;2.73;;;2.10;;
4634;SDS011;2330;48.158;11.816;2022-09-12T03:53:31;2.40;;;2.30;;
4634;SDS011;2330;48.158;11.816;2022-09-12T03:55:58;2.87;;;2.10;;
4634;SDS011;2330;48.158;11.816;2022-09-12T03:58:28;2.37;;;2.23;;
4634;SDS011;2330;48.158;11.816;2022-09-12T04:00:56;2.33;;;2.13;;
4634;SDS011;2330;48.158;11.816;2022-09-12T04:03:23;2.00;;;1.90;;
4634;SDS011;2330;48.158;11.816;2022-09-12T04:05:50;2.43;;;2.23;;
4634;SDS011;2330;48.158;11.816;2022-09-12T04:08:16;2.77;;;2.30;;
4634;SDS011;2330;48.158;11.816;2022-09-12T04:10:43;2.60;;;2.40;;
4634;SDS011;2330;48.158;11.816;2022-09-12T04:13:09;2.40;;;2.20;;
4634;SDS011;2330;48.158;11.816;2022-09-12T04:15:36;2.17;;;2.07;;
4634;SDS011;2330;48.158;11.816;2022-09-12T04:18:03;7.73;;;2.27;;
4634;SDS011;2330;48.158;11.816;2022-09-12T04:20:31;3.13;;;2.03;;
4634;SDS011;2330;48.158;11.816;2022-09-12T04:22:58;2.70;;;2.20;;
4634;SDS011;2330;48.158;11.816;2022-09-12T04:25:24;3.70;;;2.60;;
4634;SDS011;2330;48.158;11.816;2022-09-12T04:27:53;2.30;;;2.20;;
4634;SDS011;2330;48.158;11.816;2022-09-12T04:30:20;2.60;;;2.40;;
4634;SDS011;2330;48.158;11.816;2022-09-12T04:32:46;2.00;;;1.90;;
4634;SDS011;2330;48.158;11.816;2022-09-12T04:35:13;7.03;;;2.60;;
4634;SDS011;2330;48.158;11.816;2022-09-12T04:37:40;2.40;;;2.20;;
4634;SDS011;2330;48.158;11.816;2022-09-12T04:40:06;2.70;;;2.50;;
4634;SDS011;2330;48.158;11.816;2022-09-12T04:42:33;2.30;;;2.10;;
4634;SDS011;2330;48.158;11.816;2022-09-12T04:45:00;3.57;;;2.13;;
4634;SDS011;2330;48.158;11.816;2022-09-12T04:47:27;4.07;;;2.20;;
4634;SDS011;2330;48.158;11.816;2022-09-12T04:49:54;2.50;;;2.30;;
4634;SDS011;2330;48.158;11.816;2022-09-12T04:52:20;2.63;;;1.93;;
4634;SDS011;2330;48.158;11.816;2022-09-12T04:54:47;4.77;;;2.63;;
4634;SDS011;2330;48.158;11.816;2022-09-12T04:57:14;2.50;;;2.30;;
4634;SDS011;2330;48.158;11.816;2022-09-12T04:59:40;5.30;;;2.40;;
4634;SDS011;2330;48.158;11.816;2022-09-12T05:02:07;2.87;;;2.67;;
4634;SDS011;2330;48.158;11.816;2022-09-12T05:04:34;2.60;;;2.40;;
4634;SDS011;2330;48.158;11.816;2022-09-12T05:07:01;4.10;;;2.93;;
4634;SDS011;2330;48.158;11.816;2022-09-12T05:09:28;2.20;;;2.10;;
4634;SDS011;2330;48.158;11.816;2022-09-12T05:11:55;6.50;;;2.80;;
4634;SDS011;2330;48.158;11.816;2022-09-12T05:14:30;3.13;;;2.90;;
4634;SDS011;2330;48.158;11.816;2022-09-12T05:16:58;2.73;;;2.57;;
4634;SDS011;2330;48.158;11.816;2022-09-12T05:19:27;2.97;;;2.50;;
4634;SDS011;2330;48.158;11.816;2022-09-12T05:21:55;2.83;;;2.50;;
4634;SDS011;2330;48.158;11.816;2022-09-12T05:24:22;3.10;;;2.90;;
4634;SDS011;2330;48.158;11.816;2022-09-12T05:26:49;3.33;;;3.03;;
4634;SDS011;2330;48.158;11.816;2022-09-12T05:29:16;4.40;;;2.63;;
4634;SDS011;2330;48.158;11.816;2022-09-12T05:31:43;2.93;;;2.73;;
4634;SDS011;2330;48.158;11.816;2022-09-12T05:34:10;2.60;;;2.50;;
4634;SDS011;2330;48.158;11.816;2022-09-12T05:36:37;3.07;;;2.77;;
4634;SDS011;2330;48.158;11.816;2022-09-12T05:39:04;2.90;;;2.67;;
4634;SDS011;2330;48.158;11.816;2022-09-12T05:41:32;3.07;;;2.80;;
4634;SDS011;2330;48.158;11.816;2022-09-12T05:44:00;3.00;;;2.23;;
4634;SDS011;2330;48.158;11.816;2022-09-12T05:46:29;5.03;;;2.90;;
4634;SDS011;2330;48.158;11.816;2022-09-12T05:49:01;3.43;;;2.50;;
4634;SDS011;2330;48.158;11.816;2022-09-12T05:51:31;4.43;;;2.83;;
4634;SDS011;2330;48.158;11.816;2022-09-12T05:54:00;6.77;;;3.70;;
4634;SDS011;2330;48.158;11.816;2022-09-12T05:56:31;2.70;;;2.50;;
4634;SDS011;2330;48.158;11.816;2022-09-12T05:59:03;3.40;;;2.17;;
4634;SDS011;2330;48.158;11.816;2022-09-12T06:01:31;2.67;;;2.47;;
4634;SDS011;2330;48.158;11.816;2022-09-12T06:04:00;5.43;;;2.63;;
4634;SDS011;2330;48.158;11.816;2022-09-12T06:06:30;2.93;;;2.47;;
4634;SDS011;2330;48.158;11.816;2022-09-12T06:08:58;5.03;;;3.00;;
4634;SDS011;2330;48.158;11.816;2022-09-12T06:11:27;2.43;;;2.27;;
4634;SDS011;2330;48.158;11.816;2022-09-12T06:13:55;2.10;;;2.00;;
4634;SDS011;2330;48.158;11.816;2022-09-12T06:16:26;2.80;;;2.60;;
4634;SDS011;2330;48.158;11.816;2022-09-12T06:18:55;2.47;;;2.27;;
4634;SDS011;2330;48.158;11.816;2022-09-12T06:21:24;4.13;;;2.40;;
4634;SDS011;2330;48.158;11.816;2022-09-12T06:23:54;2.17;;;2.00;;
4634;SDS011;2330;48.158;11.816;2022-09-12T06:26:23;5.50;;;1.97;;
4634;SDS011;2330;48.158;11.816;2022-09-12T06:28:52;2.47;;;2.27;;
4634;SDS011;2330;48.158;11.816;2022-09-12T06:31:21;2.30;;;2.10;;
4634;SDS011;2330;48.158;11.816;2022-09-12T06:33:50;2.40;;;2.30;;
4634;SDS011;2330;48.158;11.816;2022-09-12T06:36:19;3.10;;;2.00;;
4634;SDS011;2330;48.158;11.816;2022-09-12T06:38:48;4.50;;;2.30;;
4634;SDS011;2330;48.158;11.816;2022-09-12T06:41:21;4.10;;;2.13;;
4634;SDS011;2330;48.158;11.816;2022-09-12T06:43:49;1.97;;;1.87;;
4634;SDS011;2330;48.158;11.816;2022-09-12T06:46:16;3.03;;;2.10;;
4634;SDS011;2330;48.158;11.816;2022-09-12T06:48:42;3.83;;;1.90;;
4634;SDS011;2330;48.158;11.816;2022-09-12T06:51:11;2.50;;;2.00;;
4634;SDS011;2330;48.158;11.816;2022-09-12T06:53:38;1.53;;;1.40;;
4634;SDS011;2330;48.158;11.816;2022-09-12T06:56:08;1.87;;;1.77;;
4634;SDS011;2330;48.158;11.816;2022-09-12T06:58:36;1.53;;;1.43;;
4634;SDS011;2330;48.158;11.816;2022-09-12T07:01:04;2.03;;;1.90;;
4634;SDS011;2330;48.158;11.816;2022-09-12T07:03:34;1.80;;;1.70;;
4634;SDS011;2330;48.158;11.816;2022-09-12T07:06:02;1.67;;;1.57;;
4634;SDS011;2330;48.158;11.816;2022-09-12T07:08:30;6.43;;;2.57;;
4634;SDS011;2330;48.158;11.816;2022-09-12T07:10:59;2.50;;;2.30;;
4634;SDS011;2330;48.158;11.816;2022-09-12T07:13:41;1.97;;;1.87;;
4634;SDS011;2330;48.158;11.816;2022-09-12T07:16:08;1.87;;;1.77;;
4634;SDS011;2330;48.158;11.816;2022-09-12T07:18:39;2.13;;;1.93;;
4634;SDS011;2330;48.158;11.816;2022-09-12T07:21:06;1.80;;;1.70;;
4634;SDS011;2330;48.158;11.816;2022-09-12T07:23:37;6.97;;;2.60;;
4634;SDS011;2330;48.158;11.816;2022-09-12T07:26:05;1.90;;;1.80;;
4634;SDS011;2330;48.158;11.816;2022-09-12T07:28:33;1.70;;;1.60;;
4634;SDS011;2330;48.158;11.816;2022-09-12T07:31:34;1.90;;;1.80;;
4634;SDS011;2330;48.158;11.816;2022-09-12T07:33:53;2.50;;;2.30;;
4634;SDS011;2330;48.158;11.816;2022-09-12T07:36:21;1.90;;;1.80;;
4634;SDS011;2330;48.158;11.816;2022-09-12T07:38:54;1.90;;;1.77;;
4634;SDS011;2330;48.158;11.816;2022-09-12T07:41:29;2.50;;;1.67;;
4634;SDS011;2330;48.158;11.816;2022-09-12T07:43:59;1.70;;;1.60;;
4634;SDS011;2330;48.158;11.816;2022-09-12T07:46:27;1.80;;;1.70;;
4634;SDS011;2330;48.158;11.816;2022-09-12T07:48:56;2.03;;;1.93;;
4634;SDS011;2330;48.158;11.816;2022-09-12T07:51:24;5.03;;;2.00;;
4634;SDS011;2330;48.158;11.816;2022-09-12T07:53:52;1.73;;;1.63;;
4634;SDS011;2330;48.158;11.816;2022-09-12T07:56:19;4.30;;;1.73;;
4634;SDS011;2330;48.158;11.816;2022-09-12T07:58:51;2.00;;;1.80;;
4634;SDS011;2330;48.158;11.816;2022-09-12T08:01:18;2.00;;;1.63;;
4634;SDS011;2330;48.158;11.816;2022-09-12T08:03:55;1.67;;;1.57;;
4634;SDS011;2330;48.158;11.816;2022-09-12T08:06:23;6.40;;;2.00;;
4634;SDS011;2330;48.158;11.816;2022-09-12T08:08:51;1.40;;;1.23;;
4634;SDS011;2330;48.158;11.816;2022-09-12T08:11:20;1.37;;;1.27;;
4634;SDS011;2330;48.158;11.816;2022-09-12T08:13:48;1.77;;;1.47;;
4634;SDS011;2330;48.158;11.816;2022-09-12T08:16:21;2.20;;;1.60;;
4634;SDS011;2330;48.158;11.816;2022-09-12T08:18:50;1.60;;;1.50;;
4634;SDS011;2330;48.158;11.816;2022-09-12T08:21:18;1.17;;;1.07;;
4634;SDS011;2330;48.158;11.816;2022-09-12T08:23:46;1.40;;;1.30;;
4634;SDS011;2330;48.158;11.816;2022-09-12T08:26:16;1.30;;;1.20;;
4634;SDS011;2330;48.158;11.816;2022-09-12T08:28:43;1.60;;;1.30;;
4634;SDS011;2330;48.158;11.816;2022-09-12T08:31:15;2.90;;;1.50;;
4634;SDS011;2330;48.158;11.816;2022-09-12T08:33:44;3.43;;;1.53;;
4634;SDS011;2330;48.158;11.816;2022-09-12T08:36:12;1.67;;;1.57;;
4634;SDS011;2330;48.158;11.816;2022-09-12T08:38:41;1.83;;;1.57;;
4634;SDS011;2330;48.158;11.816;2022-09-12T08:41:28;1.60;;;1.50;;
4634;SDS011;2330;48.158;11.816;2022-09-12T08:47:24;1.40;;;1.30;;
4634;SDS011;2330;48.158;11.816;2022-09-12T08:50:09;1.80;;;1.70;;
4634;SDS011;2330;48.158;11.816;2022-09-12T08:55:33;1.53;;;1.43;;
4634;SDS011;2330;48.158;11.816;2022-09-12T09:08:42;2.30;;;1.43;;
4634;SDS011;2330;48.158;11.816;2022-09-12T09:14:17;2.33;;;2.17;;
4634;SDS011;2330;48.158;11.816;2022-09-12T09:17:24;2.43;;;1.90;;
4634;SDS011;2330;48.158;11.816;2022-09-12T09:20:02;1.93;;;1.83;;
4634;SDS011;2330;48.158;11.816;2022-09-12T09:22:48;2.33;;;1.80;;
4634;SDS011;2330;48.158;11.816;2022-09-12T09:25:23;3.23;;;2.17;;
4634;SDS011;2330;48.158;11.816;2022-09-12T09:27:58;1.70;;;1.50;;
4634;SDS011;2330;48.158;11.816;2022-09-12T09:30:32;1.80;;;1.70;;
4634;SDS011;2330;48.158;11.816;2022-09-12T09:33:01;2.37;;;2.17;;
4634;SDS011;2330;48.158;11.816;2022-09-12T09:35:37;1.80;;;1.70;;
4634;SDS011;2330;48.158;11.816;2022-09-12T09:41:04;2.20;;;2.00;;
4634;SDS011;2330;48.158;11.816;2022-09-12T09:43:37;2.03;;;1.93;;
4634;SDS011;2330;48.158;11.816;2022-09-12T09:46:04;2.43;;;2.00;;
4634;SDS011;2330;48.158;11.816;2022-09-12T09:48:33;1.97;;;1.60;;
4634;SDS011;2330;48.158;11.816;2022-09-12T09:51:03;1.57;;;1.47;;
4634;SDS011;2330;48.158;11.816;2022-09-12T09:53:42;2.23;;;1.70;;
4634;SDS011;2330;48.158;11.816;2022-09-12T09:56:24;3.00;;;2.17;;
4634;SDS011;2330;48.158;11.816;2022-09-12T10:01:58;1.67;;;1.37;;
4634;SDS011;2330;48.158;11.816;2022-09-12T10:04:29;1.83;;;1.73;;
4634;SDS011;2330;48.158;11.816;2022-09-12T10:07:11;2.33;;;1.90;;
4634;SDS011;2330;48.158;11.816;2022-09-12T10:09:45;2.27;;;1.40;;
4634;SDS011;2330;48.158;11.816;2022-09-12T10:12:39;2.73;;;1.40;;
4634;SDS011;2330;48.158;11.816;2022-09-12T10:15:19;7.20;;;1.97;;
4634;SDS011;2330;48.158;11.816;2022-09-12T10:17:54;1.57;;;1.47;;
4634;SDS011;2330;48.158;11.816;2022-09-12T10:20:28;1.67;;;1.57;;
4634;SDS011;2330;48.158;11.816;2022-09-12T10:23:16;1.50;;;1.40;;
4634;SDS011;2330;48.158;11.816;2022-09-12T10:25:52;1.60;;;1.50;;
4634;SDS011;2330;48.158;11.816;2022-09-12T10:28:24;1.40;;;1.30;;
4634;SDS011;2330;48.158;11.816;2022-09-12T10:30:57;1.20;;;1.10;;
4634;SDS011;2330;48.158;11.816;2022-09-12T10:33:26;1.43;;;1.07;;
4634;SDS011;2330;48.158;11.816;2022-09-12T10:35:54;1.63;;;1.53;;
4634;SDS011;2330;48.158;11.816;2022-09-12T10:38:31;1.47;;;1.37;;
4634;SDS011;2330;48.158;11.816;2022-09-12T10:41:00;1.37;;;1.10;;
4634;SDS011;2330;48.158;11.816;2022-09-12T10:48:44;1.50;;;1.40;;
4634;SDS011;2330;48.158;11.816;2022-09-12T10:53:52;1.20;;;1.10;;
4634;SDS011;2330;48.158;11.816;2022-09-12T10:56:20;1.73;;;1.27;;
4634;SDS011;2330;48.158;11.816;2022-09-12T11:01:47;2.53;;;1.40;;
4634;SDS011;2330;48.158;11.816;2022-09-12T11:07:36;1.30;;;1.20;;
4634;SDS011;2330;48.158;11.816;2022-09-12T11:12:47;4.17;;;1.30;;
4634;SDS011;2330;48.158;11.816;2022-09-12T11:26:42;2.13;;;1.30;;
4634;SDS011;2330;48.158;11.816;2022-09-12T11:29:36;1.03;;;0.93;;
4634;SDS011;2330;48.158;11.816;2022-09-12T11:32:25;1.20;;;1.10;;
4634;SDS011;2330;48.158;11.816;2022-09-12T11:35:05;1.27;;;1.17;;
4634;SDS011;2330;48.158;11.816;2022-09-12T11:40:58;1.50;;;1.40;;
4634;SDS011;2330;48.158;11.816;2022-09-12T11:46:17;1.30;;;1.20;;
4634;SDS011;2330;48.158;11.816;2022-09-12T11:48:54;1.30;;;1.20;;
4634;SDS011;2330;48.158;11.816;2022-09-12T11:56:34;1.80;;;1.40;;
4634;SDS011;2330;48.158;11.816;2022-09-12T11:59:14;1.40;;;1.10;;
4634;SDS011;2330;48.158;11.816;2022-09-12T12:01:50;1.47;;;1.37;;
4634;SDS011;2330;48.158;11.816;2022-09-12T12:04:28;4.90;;;1.30;;
4634;SDS011;2330;48.158;11.816;2022-09-12T12:07:03;1.40;;;1.30;;
4634;SDS011;2330;48.158;11.816;2022-09-12T12:09:32;1.40;;;1.30;;
4634;SDS011;2330;48.158;11.816;2022-09-12T12:12:00;2.80;;;1.10;;
4634;SDS011;2330;48.158;11.816;2022-09-12T12:14:42;3.47;;;1.40;;
4634;SDS011;2330;48.158;11.816;2022-09-12T12:17:13;1.40;;;1.30;;
4634;SDS011;2330;48.158;11.816;2022-09-12T12:19:55;1.20;;;1.10;;
4634;SDS011;2330;48.158;11.816;2022-09-12T12:22:31;1.20;;;1.10;;
4634;SDS011;2330;48.158;11.816;2022-09-12T12:25:03;1.20;;;1.10;;
4634;SDS011;2330;48.158;11.816;2022-09-12T12:38:10;1.00;;;0.90;;
4634;SDS011;2330;48.158;11.816;2022-09-12T12:43:44;1.40;;;1.20;;
4634;SDS011;2330;48.158;11.816;2022-09-12T12:46:15;1.30;;;1.20;;
4634;SDS011;2330;48.158;11.816;2022-09-12T12:51:35;1.50;;;1.30;;
4634;SDS011;2330;48.158;11.816;2022-09-12T12:57:14;1.30;;;1.20;;
4634;SDS011;2330;48.158;11.816;2022-09-12T13:00:06;1.70;;;1.60;;
4634;SDS011;2330;48.158;11.816;2022-09-12T13:02:57;1.63;;;1.50;;
4634;SDS011;2330;48.158;11.816;2022-09-12T13:05:28;1.47;;;1.37;;
4634;SDS011;2330;48.158;11.816;2022-09-12T13:08:22;3.37;;;1.30;;
4634;SDS011;2330;48.158;11.816;2022-09-12T13:13:31;1.20;;;1.10;;
4634;SDS011;2330;48.158;11.816;2022-09-12T13:16:02;1.60;;;1.50;;
4634;SDS011;2330;48.158;11.816;2022-09-12T13:18:39;1.43;;;1.33;;
4634;SDS011;2330;48.158;11.816;2022-09-12T13:21:11;7.27;;;1.63;;
4634;SDS011;2330;48.158;11.816;2022-09-12T13:23:39;1.40;;;1.23;;
4634;SDS011;2330;48.158;11.816;2022-09-12T13:26:10;1.10;;;1.10;;
4634;SDS011;2330;48.158;11.816;2022-09-12T13:28:45;1.27;;;1.17;;
4634;SDS011;2330;48.158;11.816;2022-09-12T13:31:22;2.70;;;1.23;;
4634;SDS011;2330;48.158;11.816;2022-09-12T13:33:52;1.30;;;1.20;;
4634;SDS011;2330;48.158;11.816;2022-09-12T13:36:25;1.40;;;1.30;;
4634;SDS011;2330;48.158;11.816;2022-09-12T13:39:27;1.40;;;1.30;;
4634;SDS011;2330;48.158;11.816;2022-09-12T13:44:43;1.23;;;1.10;;
4634;SDS011;2330;48.158;11.816;2022-09-12T13:47:15;1.77;;;1.50;;
4634;SDS011;2330;48.158;11.816;2022-09-12T13:49:50;1.17;;;1.10;;
4634;SDS011;2330;48.158;11.816;2022-09-12T13:52:19;1.47;;;1.37;;
4634;SDS011;2330;48.158;11.816;2022-09-12T13:54:51;1.60;;;1.30;;
4634;SDS011;2330;48.158;11.816;2022-09-12T13:57:33;2.03;;;1.40;;
4634;SDS011;2330;48.158;11.816;2022-09-12T14:00:10;1.37;;;1.27;;
4634;SDS011;2330;48.158;11.816;2022-09-12T14:02:45;2.70;;;1.10;;
4634;SDS011;2330;48.158;11.816;2022-09-12T14:05:17;0.90;;;0.90;;
4634;SDS011;2330;48.158;11.816;2022-09-12T14:07:49;2.27;;;1.43;;
4634;SDS011;2330;48.158;11.816;2022-09-12T14:10:25;1.47;;;1.13;;
4634;SDS011;2330;48.158;11.816;2022-09-12T14:13:16;2.50;;;1.40;;
4634;SDS011;2330;48.158;11.816;2022-09-12T14:15:46;1.73;;;1.20;;
4634;SDS011;2330;48.158;11.816;2022-09-12T14:18:27;1.70;;;1.00;;
4634;SDS011;2330;48.158;11.816;2022-09-12T14:21:45;1.33;;;1.23;;
4634;SDS011;2330;48.158;11.816;2022-09-12T14:24:01;2.87;;;1.40;;
4634;SDS011;2330;48.158;11.816;2022-09-12T14:26:34;1.50;;;1.40;;
4634;SDS011;2330;48.158;11.816;2022-09-12T14:29:05;10.80;;;1.93;;
4634;SDS011;2330;48.158;11.816;2022-09-12T14:31:34;4.53;;;1.50;;
4634;SDS011;2330;48.158;11.816;2022-09-12T14:34:12;1.40;;;1.30;;
4634;SDS011;2330;48.158;11.816;2022-09-12T14:36:42;6.57;;;1.60;;
4634;SDS011;2330;48.158;11.816;2022-09-12T14:40:00;9.53;;;1.50;;
4634;SDS011;2330;48.158;11.816;2022-09-12T14:42:17;1.67;;;1.57;;
4634;SDS011;2330;48.158;11.816;2022-09-12T14:44:56;1.53;;;1.43;;
4634;SDS011;2330;48.158;11.816;2022-09-12T14:47:26;2.67;;;1.70;;
4634;SDS011;2330;48.158;11.816;2022-09-12T14:49:59;2.90;;;1.97;;
4634;SDS011;2330;48.158;11.816;2022-09-12T14:52:28;1.70;;;1.60;;
4634;SDS011;2330;48.158;11.816;2022-09-12T14:54:59;2.50;;;1.77;;
4634;SDS011;2330;48.158;11.816;2022-09-12T14:58:11;4.03;;;1.80;;
4634;SDS011;2330;48.158;11.816;2022-09-12T15:00:56;2.40;;;1.80;;
4634;SDS011;2330;48.158;11.816;2022-09-12T15:06:20;1.70;;;1.60;;
4634;SDS011;2330;48.158;11.816;2022-09-12T15:09:06;7.90;;;1.83;;
4634;SDS011;2330;48.158;11.816;2022-09-12T15:11:38;4.00;;;1.70;;
4634;SDS011;2330;48.158;11.816;2022-09-12T15:14:11;5.87;;;2.03;;
4634;SDS011;2330;48.158;11.816;2022-09-12T15:16:39;3.73;;;1.70;;
4634;SDS011;2330;48.158;11.816;2022-09-12T15:19:06;2.40;;;1.77;;
4634;SDS011;2330;48.158;11.816;2022-09-12T15:21:32;1.70;;;1.50;;
4634;SDS011;2330;48.158;11.816;2022-09-12T15:23:59;1.77;;;1.67;;
4634;SDS011;2330;48.158;11.816;2022-09-12T15:26:26;1.53;;;1.40;;
4634;SDS011;2330;48.158;11.816;2022-09-12T15:28:55;2.53;;;1.40;;
4634;SDS011;2330;48.158;11.816;2022-09-12T15:31:29;1.87;;;1.57;;
4634;SDS011;2330;48.158;11.816;2022-09-12T15:33:57;3.67;;;1.60;;
4634;SDS011;2330;48.158;11.816;2022-09-12T15:36:25;1.50;;;1.40;;
4634;SDS011;2330;48.158;11.816;2022-09-12T15:38:54;1.37;;;1.27;;
4634;SDS011;2330;48.158;11.816;2022-09-12T15:41:25;1.60;;;1.50;;
4634;SDS011;2330;48.158;11.816;2022-09-12T15:43:56;1.77;;;1.67;;
4634;SDS011;2330;48.158;11.816;2022-09-12T15:46:24;3.57;;;1.87;;
4634;SDS011;2330;48.158;11.816;2022-09-12T15:48:50;2.10;;;1.90;;
4634;SDS011;2330;48.158;11.816;2022-09-12T15:51:18;1.43;;;1.33;;
4634;SDS011;2330;48.158;11.816;2022-09-12T15:53:47;2.13;;;1.93;;
4634;SDS011;2330;48.158;11.816;2022-09-12T15:56:15;9.13;;;3.80;;
4634;SDS011;2330;48.158;11.816;2022-09-12T15:58:43;3.87;;;2.30;;
4634;SDS011;2330;48.158;11.816;2022-09-12T16:01:24;2.17;;;1.97;;
4634;SDS011;2330;48.158;11.816;2022-09-12T16:03:51;1.93;;;1.83;;
4634;SDS011;2330;48.158;11.816;2022-09-12T16:06:17;1.70;;;1.60;;
4634;SDS011;2330;48.158;11.816;2022-09-12T16:08:44;4.40;;;2.10;;
4634;SDS011;2330;48.158;11.816;2022-09-12T16:11:14;2.03;;;1.83;;
4634;SDS011;2330;48.158;11.816;2022-09-12T16:13:44;1.37;;;1.27;;
4634;SDS011;2330;48.158;11.816;2022-09-12T16:16:11;1.50;;;1.40;;
4634;SDS011;2330;48.158;11.816;2022-09-12T16:18:38;1.50;;;1.40;;
4634;SDS011;2330;48.158;11.816;2022-09-12T16:21:05;2.17;;;2.00;;
4634;SDS011;2330;48.158;11.816;2022-09-12T16:23:41;2.07;;;1.87;;
4634;SDS011;2330;48.158;11.816;2022-09-12T16:26:08;1.77;;;1.67;;
4634;SDS011;2330;48.158;11.816;2022-09-12T16:28:35;2.43;;;1.93;;
4634;SDS011;2330;48.158;11.816;2022-09-12T16:31:02;8.07;;;2.30;;
4634;SDS011;2330;48.158;11.816;2022-09-12T16:33:30;1.87;;;1.67;;
4634;SDS011;2330;48.158;11.816;2022-09-12T16:36:01;1.47;;;1.37;;
4634;SDS011;2330;48.158;11.816;2022-09-12T16:38:29;2.47;;;1.90;;
4634;SDS011;2330;48.158;11.816;2022-09-12T16:41:02;1.97;;;1.87;;
4634;SDS011;2330;48.158;11.816;2022-09-12T16:43:31;1.70;;;1.60;;
4634;SDS011;2330;48.158;11.816;2022-09-12T16:45:59;1.87;;;1.77;;
4634;SDS011;2330;48.158;11.816;2022-09-12T16:48:31;2.00;;;1.90;;
4634;SDS011;2330;48.158;11.816;2022-09-12T16:50:59;1.90;;;1.80;;
4634;SDS011;2330;48.158;11.816;2022-09-12T16:53:29;1.80;;;1.70;;
4634;SDS011;2330;48.158;11.816;2022-09-12T16:55:56;2.17;;;2.00;;
4634;SDS011;2330;48.158;11.816;2022-09-12T16:58:23;1.90;;;1.80;;
4634;SDS011;2330;48.158;11.816;2022-09-12T17:00:58;1.97;;;1.50;;
4634;SDS011;2330;48.158;11.816;2022-09-12T17:03:32;2.73;;;1.90;;
4634;SDS011;2330;48.158;11.816;2022-09-12T17:06:02;3.17;;;2.10;;
4634;SDS011;2330;48.158;11.816;2022-09-12T17:08:35;3.67;;;1.90;;
4634;SDS011;2330;48.158;11.816;2022-09-12T17:11:05;2.10;;;2.00;;
4634;SDS011;2330;48.158;11.816;2022-09-12T17:13:33;2.47;;;2.27;;
4634;SDS011;2330;48.158;11.816;2022-09-12T17:16:20;1.87;;;1.77;;
4634;SDS011;2330;48.158;11.816;2022-09-12T17:18:49;3.50;;;2.40;;
4634;SDS011;2330;48.158;11.816;2022-09-12T17:21:17;2.30;;;2.20;;
4634;SDS011;2330;48.158;11.816;2022-09-12T17:23:45;3.03;;;2.83;;
4634;SDS011;2330;48.158;11.816;2022-09-12T17:26:13;1.93;;;1.83;;
4634;SDS011;2330;48.158;11.816;2022-09-12T17:28:41;2.30;;;2.20;;
4634;SDS011;2330;48.158;11.816;2022-09-12T17:31:08;1.90;;;1.80;;
4634;SDS011;2330;48.158;11.816;2022-09-12T17:33:37;3.93;;;2.47;;
4634;SDS011;2330;48.158;11.816;2022-09-12T17:36:12;3.20;;;2.30;;
4634;SDS011;2330;48.158;11.816;2022-09-12T17:38:44;3.43;;;2.70;;
4634;SDS011;2330;48.158;11.816;2022-09-12T17:41:12;2.73;;;2.20;;